Time;durP1;ratioP1;P1;durP2;ratioP2;P2;SDS_P1;SDS_P2;PMS_P1;PMS_P2;Temp;Humidity;BMP_temperature;BMP_pressure;BME280_temperature;BME280_humidity;BME280_pressure;Samples;Min_cycle;Max_cycle;Signal;HPM_P1;HPM_P2
2022/06/29 00:01:58;;;;;;;17.80;11.05;;;;;;;15.71;82.69;101120.50;5145029;27;20046;-67
2022/06/29 00:04:23;;;;;;;16.13;12.18;;;;;;;15.73;82.76;101123.09;5145059;27;20110;-67
2022/06/29 00:06:48;;;;;;;24.38;12.80;;;;;;;15.71;82.55;101119.63;5144544;27;20393;-68
2022/06/29 00:09:14;;;;;;;20.55;10.98;;;;;;;15.69;82.94;101127.50;5145035;27;20088;-70
2022/06/29 00:11:39;;;;;;;18.52;11.65;;;;;;;15.69;82.70;101126.63;5145083;27;20027;-68
2022/06/29 00:14:04;;;;;;;16.60;12.00;;;;;;;15.69;83.04;101124.03;5144915;27;20027;-68
2022/06/29 00:16:30;;;;;;;19.13;11.27;;;;;;;15.69;82.86;101124.03;5144670;27;20029;-68
2022/06/29 00:18:55;;;;;;;18.38;12.00;;;;;;;15.69;82.76;101124.03;5144467;27;20493;-68
2022/06/29 00:21:20;;;;;;;15.70;11.85;;;;;;;15.68;82.88;101128.41;5125918;27;20033;-68
2022/06/29 00:23:46;;;;;;;18.42;11.80;;;;;;;15.65;83.01;101114.50;5144478;27;20054;-68
2022/06/29 00:26:11;;;;;;;17.98;12.73;;;;;;;15.63;83.23;101125.00;5144676;27;20027;-68
2022/06/29 00:28:37;;;;;;;17.92;13.27;;;;;;;15.65;83.31;101124.97;5144314;27;20046;-68
2022/06/29 00:31:02;;;;;;;18.55;12.93;;;;;;;15.60;83.92;101132.91;5144618;27;20046;-68
2022/06/29 00:33:28;;;;;;;20.17;12.45;;;;;;;15.54;83.82;101118.19;5144682;27;20019;-68
2022/06/29 00:35:53;;;;;;;16.50;11.70;;;;;;;15.53;84.36;101115.63;5144194;27;20034;-69
2022/06/29 00:38:18;;;;;;;18.02;13.63;;;;;;;15.55;84.54;101124.28;5125857;28;20072;-68
2022/06/29 00:40:44;;;;;;;20.83;13.07;;;;;;;15.48;84.47;101115.66;5144592;27;20153;-68
2022/06/29 00:43:09;;;;;;;22.75;12.85;;;;;;;15.55;84.75;101125.16;5144434;27;20398;-68
2022/06/29 00:45:35;;;;;;;19.02;13.80;;;;;;;15.54;84.91;101126.06;5144309;27;20019;-70
2022/06/29 00:48:01;;;;;;;20.02;14.48;;;;;;;15.53;84.91;101121.69;5144241;28;20233;-67
2022/06/29 00:50:30;;;;;;;21.23;13.60;;;;;;;15.53;85.20;101132.16;5144439;28;20027;-69
2022/06/29 00:53:03;;;;;;;21.05;14.13;;;;;;;15.51;85.12;101118.22;5144123;28;20027;-67
2022/06/29 00:55:31;;;;;;;20.50;14.57;;;;;;;15.51;85.43;101118.22;5144404;28;20278;-67
2022/06/29 00:58:00;;;;;;;18.90;14.32;;;;;;;15.51;85.25;101102.53;5144123;28;20390;-67
2022/06/29 01:00:26;;;;;;;16.35;12.80;;;;;;;15.51;85.50;101107.75;5144370;28;20081;-70
2022/06/29 01:02:51;;;;;;;21.02;14.07;;;;;;;15.52;85.33;101106.88;5144015;28;20409;-67
2022/06/29 01:05:16;;;;;;;17.75;13.70;;;;;;;15.58;85.40;101106.78;5143957;28;20024;-70
2022/06/29 01:07:42;;;;;;;17.88;14.70;;;;;;;15.59;85.44;101105.88;5144989;27;20027;-70
2022/06/29 01:10:08;;;;;;;23.38;14.13;;;;;;;15.60;85.21;101114.59;5148269;27;20019;-69
2022/06/29 01:12:33;;;;;;;21.40;15.02;;;;;;;15.56;85.49;101107.69;5148227;27;20052;-68
2022/06/29 01:14:59;;;;;;;22.67;15.00;;;;;;;15.63;85.35;101111.06;5148124;27;20039;-69
2022/06/29 01:17:25;;;;;;;19.52;15.13;;;;;;;15.63;85.39;101116.28;5148061;27;20027;-69
2022/06/29 01:19:52;;;;;;;18.70;14.75;;;;;;;15.63;85.04;101111.06;5148204;27;20072;-69
2022/06/29 01:22:20;;;;;;;19.08;14.35;;;;;;;15.61;84.91;101113.69;5147932;27;20042;-69
2022/06/29 01:24:47;;;;;;;22.50;14.43;;;;;;;15.55;84.80;101117.31;5147946;27;20064;-68
2022/06/29 01:27:15;;;;;;;26.65;15.68;;;;;;;15.49;84.85;101120.88;5148000;27;20066;-70
2022/06/29 01:29:40;;;;;;;22.48;14.48;;;;;;;15.44;84.57;101122.72;5148030;27;20052;-70
2022/06/29 01:32:07;;;;;;;17.92;14.35;;;;;;;15.38;84.45;101119.34;5148290;27;20015;-69
2022/06/29 01:34:32;;;;;;;18.73;13.60;;;;;;;15.27;84.23;101117.75;5147885;27;20027;-69
2022/06/29 01:36:59;;;;;;;22.38;17.20;;;;;;;15.20;84.46;101103.06;5147524;27;20030;-69
2022/06/29 01:39:25;;;;;;;23.75;16.33;;;;;;;15.17;84.73;101113.59;5147731;27;20019;-69
2022/06/29 01:41:51;;;;;;;30.17;16.45;;;;;;;15.10;84.47;101107.56;5147635;27;20075;-69
2022/06/29 01:44:17;;;;;;;23.08;15.70;;;;;;;15.05;84.61;101099.81;5147934;27;20039;-69
2022/06/29 01:46:42;;;;;;;24.88;16.88;;;;;;;15.00;84.70;101101.63;5147753;27;20023;-69
2022/06/29 01:49:07;;;;;;;24.15;16.23;;;;;;;14.94;84.47;101094.75;5147798;27;20065;-69
2022/06/29 01:51:33;;;;;;;25.58;17.25;;;;;;;14.93;84.61;101095.66;5128820;27;20037;-69
2022/06/29 01:53:59;;;;;;;28.50;18.23;;;;;;;14.88;84.55;101097.47;5147922;27;20038;-69
2022/06/29 01:56:24;;;;;;;30.70;20.40;;;;;;;14.81;84.50;101099.31;5147654;27;20106;-69
2022/06/29 01:58:50;;;;;;;30.65;20.23;;;;;;;14.78;84.72;101109.78;5147326;27;20046;-70
2022/06/29 02:01:15;;;;;;;32.15;20.05;;;;;;;14.73;84.63;101109.84;5147430;27;20030;-70
2022/06/29 02:03:41;;;;;;;34.05;21.08;;;;;;;14.65;84.81;101103.84;5147585;27;20027;-70
2022/06/29 02:06:06;;;;;;;35.65;21.52;;;;;;;14.62;84.80;101107.38;5147356;27;20038;-70
2022/06/29 02:08:32;;;;;;;33.42;21.08;;;;;;;14.60;84.93;101106.53;5147257;27;20027;-70
2022/06/29 02:11:00;;;;;;;35.78;23.23;;;;;;;14.58;85.42;101108.34;5147363;27;20035;-69
2022/06/29 02:13:25;;;;;;;39.45;22.50;;;;;;;14.57;85.85;101109.19;5147303;27;20023;-70
2022/06/29 02:15:51;;;;;;;40.03;23.30;;;;;;;14.56;86.12;101109.22;5147003;27;20347;-70
2022/06/29 02:18:17;;;;;;;36.00;22.50;;;;;;;14.59;86.79;101111.78;5146713;27;20023;-69
2022/06/29 02:20:42;;;;;;;36.70;22.48;;;;;;;14.58;86.88;101105.72;5147128;27;20026;-69
2022/06/29 02:23:07;;;;;;;38.20;22.75;;;;;;;14.60;86.82;101106.53;5146912;27;20048;-70
2022/06/29 02:25:33;;;;;;;33.85;21.02;;;;;;;14.62;87.19;101106.50;5147194;27;20022;-70
2022/06/29 02:27:58;;;;;;;31.17;20.20;;;;;;;14.63;86.81;101103.03;5146753;27;20027;-70
2022/06/29 02:34:43;;;;;;;37.13;20.38;;;;;;;14.62;86.80;101096.06;5146834;27;20014;-69
2022/06/29 02:35:53;;;;;;;27.50;19.35;;;;;;;14.63;86.28;101097.81;5146708;27;20034;-69
2022/06/29 02:38:18;;;;;;;33.30;22.20;;;;;;;14.65;86.48;101093.41;5146608;27;20099;-69
2022/06/29 02:40:44;;;;;;;38.58;25.38;;;;;;;14.67;86.63;101096.00;5146802;27;20034;-70
2022/06/29 02:43:10;;;;;;;38.95;24.90;;;;;;;14.70;86.70;101106.41;5146704;27;20027;-70
2022/06/29 02:45:36;;;;;;;36.97;24.52;;;;;;;14.74;86.78;101105.50;5147004;27;20138;-70
2022/06/29 02:48:01;;;;;;;33.78;21.33;;;;;;;14.76;87.03;101101.09;5146444;27;20558;-69
2022/06/29 02:50:27;;;;;;;31.08;21.35;;;;;;;14.81;87.58;101101.06;5146593;27;20030;-70
2022/06/29 02:52:52;;;;;;;30.08;20.80;;;;;;;14.83;87.83;101104.50;5146175;27;20054;-70
2022/06/29 02:55:18;;;;;;;33.60;20.83;;;;;;;14.83;88.48;101102.78;5146472;27;20027;-70
2022/06/29 02:57:43;;;;;;;29.92;20.88;;;;;;;14.87;88.48;101109.66;5146286;27;20022;-68
2022/06/29 03:00:09;;;;;;;30.55;20.92;;;;;;;14.93;88.64;101110.47;5146260;27;20044;-68
2022/06/29 03:02:35;;;;;;;30.60;18.42;;;;;;;15.00;88.32;101112.09;5146432;27;20039;-69
2022/06/29 03:05:00;;;;;;;26.55;18.00;;;;;;;15.07;88.45;101118.09;5146054;27;20044;-69
2022/06/29 03:07:26;;;;;;;24.65;17.17;;;;;;;15.13;88.10;101111.91;5145906;27;20427;-69
2022/06/29 03:09:51;;;;;;;19.80;15.45;;;;;;;15.21;88.29;101110.88;5145964;27;20046;-69
2022/06/29 03:12:17;;;;;;;16.67;14.57;;;;;;;15.41;89.24;101111.44;5127276;27;20030;-69
2022/06/29 03:14:42;;;;;;;13.32;11.88;;;;;;;15.75;90.62;101121.28;5146013;27;20470;-70
2022/06/29 03:17:08;;;;;;;16.42;9.77;;;;;;;16.16;92.11;101110.06;5145986;27;20080;-68
2022/06/29 03:19:34;;;;;;;8.57;7.72;;;;;;;16.65;93.75;101105.53;5145871;27;20554;-69
2022/06/29 03:21:59;;;;;;;7.72;6.28;;;;;;;17.39;94.64;101109.94;5145698;27;20051;-68
2022/06/29 03:24:24;;;;;;;8.63;6.78;;;;;;;18.08;94.13;101111.56;5145604;27;20460;-69
2022/06/29 03:26:50;;;;;;;8.13;5.88;;;;;;;18.75;nan;101107.88;5145662;27;20062;-69
2022/06/29 03:29:15;;;;;;;7.70;6.28;;;;;;;19.44;91.92;101119.72;5145689;27;20034;-68
2022/06/29 03:31:41;;;;;;;8.32;6.15;;;;;;;19.98;88.54;101116.94;5145090;27;20444;-68
2022/06/29 03:34:06;;;;;;;9.52;6.43;;;;;;;20.32;84.69;101114.81;5145583;27;20026;-68
2022/06/29 03:36:31;;;;;;;9.45;6.43;;;;;;;20.55;81.83;101111.31;5145315;27;20031;-69
2022/06/29 03:38:57;;;;;;;8.95;6.40;;;;;;;20.79;79.76;101113.88;5145431;27;20470;-68
2022/06/29 03:41:22;;;;;;;6.95;5.78;;;;;;;21.16;77.66;101105.41;5145530;27;20052;-69
2022/06/29 03:43:47;;;;;;;6.25;4.95;;;;;;;21.58;75.52;101100.13;5145594;27;20035;-68
2022/06/29 03:46:13;;;;;;;5.50;4.55;;;;;;;22.07;74.57;101101.50;5145542;27;20061;-69
2022/06/29 03:48:38;;;;;;;7.70;5.40;;;;;;;22.73;71.37;101104.63;5145189;27;20015;-69
2022/06/29 03:51:04;;;;;;;5.78;5.13;;;;;;;23.31;68.98;101100.00;5143666;27;20026;-69
2022/06/29 03:53:29;;;;;;;5.22;3.95;;;;;;;23.80;65.98;101105.50;5145429;27;20038;-69
2022/06/29 03:55:56;;;;;;;5.82;4.68;;;;;;;24.28;63.63;101110.03;5145288;27;20043;-69
2022/06/29 03:58:21;;;;;;;7.93;4.20;;;;;;;24.53;61.76;101100.69;5145437;27;20026;-69
2022/06/29 04:00:47;;;;;;;5.70;3.90;;;;;;;24.91;60.11;101110.94;5145188;27;20382;-69
2022/06/29 04:03:12;;;;;;;6.05;3.92;;;;;;;25.41;58.20;101100.03;5145126;27;20027;-69
2022/06/29 04:05:37;;;;;;;5.28;4.00;;;;;;;25.88;56.53;101088.41;5145229;27;20068;-72
2022/06/29 04:08:03;;;;;;;4.32;3.28;;;;;;;26.42;55.00;101092.13;5144685;27;20072;-67
2022/06/29 04:10:28;;;;;;;6.35;3.90;;;;;;;26.93;52.56;101086.13;5144964;27;20078;-67
2022/06/29 04:12:54;;;;;;;6.85;4.30;;;;;;;26.77;50.66;101088.09;5145020;27;20034;-74
2022/06/29 04:15:19;;;;;;;5.07;4.57;;;;;;;26.38;50.13;101083.47;5144866;27;20038;-73
2022/06/29 04:17:44;;;;;;;5.50;4.72;;;;;;;26.20;50.65;101097.00;5144918;27;20023;-74
2022/06/29 04:21:05;;;;;;;5.50;3.97;;;;;;;26.19;50.37;101089.09;5144654;27;20087;-74
2022/06/29 04:22:55;;;;;;;5.90;4.07;;;;;;;26.03;49.28;101095.41;5144153;27;20456;-74
2022/06/29 04:25:21;;;;;;;6.40;4.00;;;;;;;25.98;49.72;101087.72;5144964;27;20039;-74
2022/06/29 04:27:46;;;;;;;4.25;3.83;;;;;;;26.13;49.05;101089.50;5144698;27;20031;-73
2022/06/29 04:30:12;;;;;;;6.22;3.58;;;;;;;26.33;48.42;101080.25;5144719;27;20023;-71
2022/06/29 04:32:37;;;;;;;5.10;4.60;;;;;;;26.21;47.51;101088.06;5144575;27;20053;-76
2022/06/29 04:35:03;;;;;;;9.98;4.75;;;;;;;25.92;47.83;101082.81;5144388;27;20019;-76
2022/06/29 04:37:28;;;;;;;4.40;3.85;;;;;;;25.52;48.48;101098.53;5144217;27;20042;-76
2022/06/29 04:39:53;;;;;;;5.13;3.90;;;;;;;25.27;48.48;101089.41;5144287;27;20027;-76
2022/06/29 04:42:19;;;;;;;7.28;3.78;;;;;;;25.42;48.53;101091.13;5144488;27;20027;-75
2022/06/29 04:44:44;;;;;;;7.22;4.63;;;;;;;25.53;47.87;101092.28;5144556;27;20579;-76
2022/06/29 04:47:09;;;;;;;6.35;4.43;;;;;;;25.14;47.93;101082.16;5144440;27;20030;-76
2022/06/29 04:49:35;;;;;;;5.47;4.38;;;;;;;24.82;49.15;101093.72;5144372;28;20050;-75
2022/06/29 04:52:00;;;;;;;9.35;6.15;;;;;;;24.64;49.01;101092.97;5144011;28;20023;-75
2022/06/29 04:54:25;;;;;;;5.85;5.28;;;;;;;24.41;50.07;101088.97;5144506;28;20026;-75
2022/06/29 04:56:51;;;;;;;7.50;6.00;;;;;;;24.11;50.12;101079.94;5144651;28;20019;-75
2022/06/29 04:59:16;;;;;;;7.13;6.03;;;;;;;23.76;51.19;101087.09;5144275;28;20024;-75
2022/06/29 05:01:42;;;;;;;8.07;5.70;;;;;;;23.39;52.53;101086.38;5144208;28;20019;-74
2022/06/29 05:04:07;;;;;;;8.95;5.95;;;;;;;23.33;52.92;101076.06;5144255;28;20023;-75
2022/06/29 05:06:32;;;;;;;7.95;5.50;;;;;;;23.45;53.56;101083.41;5143999;28;20106;-75
2022/06/29 05:08:58;;;;;;;8.27;4.85;;;;;;;23.62;53.09;101085.19;5144204;28;20099;-75
2022/06/29 05:11:25;;;;;;;9.10;5.65;;;;;;;23.92;53.25;101073.00;5144318;28;20031;-76
2022/06/29 05:13:51;;;;;;;9.05;5.45;;;;;;;24.42;52.41;101086.22;5125855;28;20488;-75
2022/06/29 05:16:17;;;;;;;7.43;5.40;;;;;;;24.99;51.45;101079.47;5143813;28;20043;-75
2022/06/29 05:18:43;;;;;;;7.00;4.55;;;;;;;25.76;50.32;101076.72;5144000;28;20034;-75
2022/06/29 05:21:09;;;;;;;6.25;5.05;;;;;;;26.36;48.07;101080.91;5143823;28;20024;-75
2022/06/29 05:23:34;;;;;;;7.32;4.85;;;;;;;26.59;48.21;101083.91;5143896;28;20134;-75
2022/06/29 05:26:00;;;;;;;7.57;4.28;;;;;;;27.37;47.02;101083.19;5144407;28;20023;-75
2022/06/29 05:28:26;;;;;;;6.72;4.75;;;;;;;28.04;45.43;101083.03;5143989;28;20512;-76
2022/06/29 05:30:52;;;;;;;6.03;4.10;;;;;;;28.53;44.40;101094.59;5144090;28;20023;-75
2022/06/29 05:33:17;;;;;;;6.18;3.78;;;;;;;29.01;42.79;101100.88;5144040;28;20026;-76
2022/06/29 05:35:43;;;;;;;7.18;3.85;;;;;;;29.10;42.41;101094.00;5143815;28;20084;-76
2022/06/29 05:38:08;;;;;;;6.60;3.53;;;;;;;28.88;42.48;101092.09;5143537;28;20019;-81
2022/06/29 05:40:33;;;;;;;6.95;3.25;;;;;;;28.76;41.88;101099.19;5143800;28;20265;-75
2022/06/29 05:42:59;;;;;;;5.57;3.60;;;;;;;28.54;42.78;101096.34;5143607;28;20046;-78
2022/06/29 05:45:25;;;;;;;6.45;3.10;;;;;;;28.63;42.04;101086.78;5143902;28;20041;-77
2022/06/29 05:47:52;;;;;;;7.47;2.83;;;;;;;28.76;42.26;101086.69;5143920;28;20023;-76
2022/06/29 05:50:18;;;;;;;7.13;3.47;;;;;;;29.23;42.00;101091.25;5144028;28;20027;-75
2022/06/29 05:52:43;;;;;;;6.93;3.40;;;;;;;29.61;40.24;101088.38;5143349;27;20034;-74
2022/06/29 05:55:09;;;;;;;5.43;2.95;;;;;;;29.77;39.88;101093.34;5147201;27;20034;-74
2022/06/29 05:57:35;;;;;;;6.53;3.50;;;;;;;30.06;39.06;101085.63;5147785;27;20110;-78
2022/06/29 06:00:02;;;;;;;5.45;3.03;;;;;;;30.44;38.46;101085.34;5147557;27;20027;-74
2022/06/29 06:02:28;;;;;;;4.75;3.33;;;;;;;30.46;37.82;101080.72;5147744;27;20087;-75
2022/06/29 06:04:53;;;;;;;3.75;2.25;;;;;;;31.03;37.72;101076.91;5147481;27;20027;-75
2022/06/29 06:07:18;;;;;;;4.25;2.80;;;;;;;31.22;36.92;101073.50;5145868;27;20030;-76
2022/06/29 06:09:44;;;;;;;6.63;2.88;;;;;;;31.65;35.93;101068.06;5147844;27;20019;-77
2022/06/29 06:12:09;;;;;;;4.10;2.25;;;;;;;31.82;35.19;101074.63;5147312;27;20023;-76
2022/06/29 06:14:35;;;;;;;6.95;2.35;;;;;;;32.31;34.21;101075.72;5147266;27;20326;-78
2022/06/29 06:17:00;;;;;;;6.35;2.58;;;;;;;32.58;33.93;101077.75;5146044;27;20030;-77
2022/06/29 06:19:26;;;;;;;3.85;1.98;;;;;;;32.45;33.50;101079.81;5147171;27;20055;-77
2022/06/29 06:21:51;;;;;;;5.20;1.88;;;;;;;32.64;33.26;101077.16;5146610;27;20262;-77
2022/06/29 06:24:16;;;;;;;4.40;2.45;;;;;;;33.00;32.65;101078.41;5149843;27;20047;-76
2022/06/29 06:26:42;;;;;;;5.55;2.08;;;;;;;32.76;32.58;101072.50;5147969;27;20038;-77
2022/06/29 06:29:07;;;;;;;5.28;2.10;;;;;;;32.77;32.34;101079.56;5146963;27;20027;-77
2022/06/29 06:31:34;;;;;;;5.28;2.38;;;;;;;32.45;32.77;101078.00;5149053;27;20023;-76
2022/06/29 06:34:00;;;;;;;3.17;2.10;;;;;;;32.42;33.04;101082.78;5149143;27;20058;-76
2022/06/29 06:36:26;;;;;;;5.03;2.15;;;;;;;32.35;33.21;101075.28;5146838;27;20019;-75
2022/06/29 06:38:51;;;;;;;5.55;1.80;;;;;;;32.57;32.93;101078.75;5145420;27;20567;-76
2022/06/29 06:41:23;;;;;;;4.22;2.17;;;;;;;32.67;32.23;101075.19;5146924;27;20019;-76
2022/06/29 06:43:59;;;;;;;5.38;1.75;;;;;;;32.89;31.57;101082.94;5146961;27;20454;-78
2022/06/29 06:46:26;;;;;;;4.95;1.90;;;;;;;32.97;31.13;101078.69;5146449;27;20034;-76
2022/06/29 06:48:52;;;;;;;4.68;2.15;;;;;;;33.13;31.22;101084.31;5127939;27;20466;-76
2022/06/29 06:51:19;;;;;;;3.20;2.05;;;;;;;33.01;31.57;101080.09;5146313;27;20098;-75
2022/06/29 06:53:44;;;;;;;4.32;2.30;;;;;;;33.35;31.02;101095.75;5146506;27;20049;-75
2022/06/29 06:56:10;;;;;;;5.50;2.10;;;;;;;33.30;30.72;101089.94;5146511;27;20023;-75
2022/06/29 06:58:36;;;;;;;5.95;2.10;;;;;;;32.92;30.81;101094.41;5146419;27;20034;-76
2022/06/29 07:01:05;;;;;;;3.92;2.20;;;;;;;32.29;31.13;101081.22;5146575;27;20113;-79
2022/06/29 07:03:31;;;;;;;5.93;2.00;;;;;;;32.21;31.42;101081.06;5146563;27;20023;-76
2022/06/29 07:06:04;;;;;;;5.07;2.10;;;;;;;31.86;31.19;101078.72;5145388;27;20011;-79
2022/06/29 07:08:31;;;;;;;4.40;1.83;;;;;;;30.79;32.25;101076.22;5143838;27;20019;-78
2022/06/29 07:10:57;;;;;;;3.88;2.03;;;;;;;30.07;33.64;101083.81;5127840;27;20030;-79
2022/06/29 07:13:22;;;;;;;2.92;1.52;;;;;;;29.60;35.14;101089.34;5146401;27;20022;-78
2022/06/29 07:15:48;;;;;;;5.88;2.20;;;;;;;29.28;35.32;101093.56;5147651;27;20034;-78
2022/06/29 07:18:13;;;;;;;4.55;2.30;;;;;;;28.78;36.04;101094.59;5146151;27;20115;-77
2022/06/29 07:20:38;;;;;;;3.72;1.95;;;;;;;28.23;37.03;101095.06;5144696;27;20182;-77
2022/06/29 07:23:04;;;;;;;7.30;2.03;;;;;;;28.26;37.59;101092.16;5146445;27;20406;-78
2022/06/29 07:25:29;;;;;;;4.70;2.38;;;;;;;27.96;37.77;101091.59;5149667;27;20015;-77
2022/06/29 07:27:54;;;;;;;4.38;2.10;;;;;;;27.60;38.45;101086.06;5145766;27;20027;-77
2022/06/29 07:30:20;;;;;;;4.25;2.28;;;;;;;27.32;39.11;101075.50;5147448;27;20027;-78
2022/06/29 07:32:45;;;;;;;5.20;2.42;;;;;;;27.18;39.15;101079.13;5129590;27;20015;-78
2022/06/29 07:35:11;;;;;;;4.57;2.35;;;;;;;26.83;38.78;101077.03;5147315;27;20327;-78
2022/06/29 07:37:36;;;;;;;4.55;1.70;;;;;;;26.63;38.88;101075.69;5146639;27;20027;-78
2022/06/29 07:40:02;;;;;;;6.25;1.63;;;;;;;26.44;38.52;101077.75;5144963;27;20023;-78
2022/06/29 07:42:27;;;;;;;5.85;1.63;;;;;;;25.99;38.84;101077.94;5147391;27;20020;-80
2022/06/29 07:44:52;;;;;;;4.00;1.67;;;;;;;25.79;38.93;101073.88;5146280;27;20530;-78
2022/06/29 07:47:18;;;;;;;8.85;1.60;;;;;;;25.48;38.89;101053.53;5145814;27;20033;-78
2022/06/29 07:49:43;;;;;;;3.20;1.50;;;;;;;25.31;38.89;101056.38;5145559;27;20142;-78
2022/06/29 07:52:08;;;;;;;2.97;1.52;;;;;;;25.11;39.24;101066.41;5143859;27;20435;-78
2022/06/29 07:54:34;;;;;;;4.45;1.60;;;;;;;24.81;39.21;101051.31;5145490;27;20083;-78
2022/06/29 07:56:59;;;;;;;4.07;1.63;;;;;;;24.67;39.99;101066.25;5145494;27;20027;-77
2022/06/29 07:59:25;;;;;;;3.78;1.83;;;;;;;24.42;40.99;101065.00;5145313;27;20030;-77
2022/06/29 08:01:50;;;;;;;6.70;1.58;;;;;;;24.25;40.76;101072.09;5145404;27;20102;-77
2022/06/29 08:04:15;;;;;;;4.32;1.77;;;;;;;24.06;41.10;101074.06;5145516;27;20053;-77
2022/06/29 08:06:41;;;;;;;4.55;1.65;;;;;;;23.93;41.31;101068.56;5145019;27;20065;-77
2022/06/29 08:09:06;;;;;;;6.90;1.80;;;;;;;23.74;42.18;101064.25;5126659;27;20029;-77
2022/06/29 08:11:32;;;;;;;5.07;1.90;;;;;;;23.60;42.29;101067.63;5145423;27;20019;-76
2022/06/29 08:13:57;;;;;;;5.05;1.70;;;;;;;23.35;43.21;101051.22;5145082;27;20011;-77
2022/06/29 08:16:23;;;;;;;3.90;1.90;;;;;;;23.22;43.86;101066.91;5144786;27;20098;-77
2022/06/29 08:18:48;;;;;;;4.38;2.28;;;;;;;23.13;43.94;101056.78;5144903;27;20086;-76
2022/06/29 08:21:14;;;;;;;5.32;2.00;;;;;;;23.02;44.19;101055.53;5144758;27;20018;-76
2022/06/29 08:23:39;;;;;;;4.38;1.85;;;;;;;23.00;44.44;101059.19;5144497;27;20479;-76
2022/06/29 08:26:04;;;;;;;10.93;2.33;;;;;;;23.12;44.34;101060.34;5144900;27;20023;-76
2022/06/29 08:28:30;;;;;;;3.35;1.85;;;;;;;23.35;43.00;101069.78;5144809;27;20030;-76
2022/06/29 08:30:55;;;;;;;3.65;1.50;;;;;;;23.35;40.90;101068.91;5143623;27;20019;-76
2022/06/29 08:33:21;;;;;;;5.10;1.50;;;;;;;23.28;41.25;101063.06;5144747;27;20453;-76
2022/06/29 08:35:48;;;;;;;6.28;1.40;;;;;;;23.15;41.58;101069.00;5109360;28;20027;-76
2022/06/29 08:38:14;;;;;;;4.22;1.70;;;;;;;22.88;41.66;101040.34;5144236;27;20026;-76
2022/06/29 08:40:49;;;;;;;5.90;1.55;;;;;;;22.76;41.64;101043.63;5144811;27;20027;-76
2022/06/29 08:43:18;;;;;;;2.15;1.40;;;;;;;22.80;41.94;101068.97;5144485;27;20455;-76
2022/06/29 08:45:48;;;;;;;6.00;1.70;;;;;;;22.41;41.63;101055.81;5143227;27;20023;-76
2022/06/29 08:48:15;;;;;;;4.68;1.73;;;;;;;21.98;42.05;101021.69;5144777;27;20023;-76
2022/06/29 08:50:43;;;;;;;6.93;1.40;;;;;;;21.84;42.38;101032.91;5144784;28;20553;-76
2022/06/29 08:53:12;;;;;;;4.57;1.83;;;;;;;21.95;43.48;101072.06;5144356;28;20039;-76
2022/06/29 08:55:43;;;;;;;6.35;1.63;;;;;;;21.97;43.67;101074.63;5144701;28;20019;-77
2022/06/29 08:58:13;;;;;;;7.50;1.65;;;;;;;21.95;43.76;101064.13;5144667;28;20031;-75
2022/06/29 09:00:39;;;;;;;4.97;1.40;;;;;;;22.03;43.89;101048.78;5144738;28;20027;-76
2022/06/29 09:03:04;;;;;;;6.63;1.63;;;;;;;22.48;43.49;101080.19;5144538;28;20099;-76
2022/06/29 09:05:33;;;;;;;4.20;1.70;;;;;;;22.69;43.06;101074.81;5144865;28;20041;-75
2022/06/29 09:07:59;;;;;;;4.55;2.03;;;;;;;22.73;42.78;101036.66;5144322;28;20023;-78
2022/06/29 09:10:26;;;;;;;3.22;1.48;;;;;;;23.00;42.81;101059.19;5144427;28;20095;-78
2022/06/29 09:12:52;;;;;;;4.20;1.80;;;;;;;23.29;42.70;101051.56;5144553;28;20027;-76
2022/06/29 09:15:29;;;;;;;4.35;1.55;;;;;;;23.71;42.98;101061.75;5144349;28;20148;-76
2022/06/29 09:17:54;;;;;;;6.35;1.60;;;;;;;24.51;42.09;101067.13;5144476;28;20027;-75
2022/06/29 09:20:20;;;;;;;2.53;1.77;;;;;;;24.74;41.61;101049.03;5144486;28;20147;-77
2022/06/29 09:22:54;;;;;;;4.07;1.60;;;;;;;24.67;41.45;101046.78;5143867;28;20417;-74
2022/06/29 09:25:27;;;;;;;6.20;1.60;;;;;;;24.60;41.87;101054.28;5125795;28;20019;-77
2022/06/29 09:27:56;;;;;;;4.85;1.63;;;;;;;24.55;42.27;101067.81;5144234;27;20031;-78
2022/06/29 09:30:29;;;;;;;5.10;1.70;;;;;;;24.50;42.74;101070.75;5130245;27;20034;-77
2022/06/29 09:33:01;;;;;;;4.28;1.48;;;;;;;24.44;42.52;101062.25;5148318;27;20023;-78
2022/06/29 09:35:26;;;;;;;2.17;1.50;;;;;;;24.26;42.54;101028.75;5148299;27;20038;-77
2022/06/29 09:37:51;;;;;;;3.38;1.30;;;;;;;24.21;42.64;101028.13;5147925;27;20031;-75
2022/06/29 09:40:17;;;;;;;4.22;1.60;;;;;;;24.38;42.03;101072.28;5148144;27;20110;-75
2022/06/29 09:42:43;;;;;;;6.38;1.63;;;;;;;24.29;41.74;101066.63;5148015;27;20494;-74
2022/06/29 09:45:08;;;;;;;5.15;1.75;;;;;;;24.45;41.70;101069.28;5147940;27;20094;-77
2022/06/29 09:47:38;;;;;;;3.00;1.40;;;;;;;24.49;41.41;101055.75;5147976;27;20379;-75
2022/06/29 09:50:08;;;;;;;3.05;1.17;;;;;;;24.64;41.05;101058.47;5147770;27;20099;-77
2022/06/29 09:52:37;;;;;;;3.38;1.23;;;;;;;24.81;40.52;101064.59;5147602;27;20019;-75
2022/06/29 09:55:06;;;;;;;3.70;1.20;;;;;;;24.97;40.14;101051.28;5147904;27;20031;-78
2022/06/29 09:57:35;;;;;;;1.67;1.17;;;;;;;25.15;39.71;101046.66;5147964;27;20027;-75
2022/06/29 10:02:51;;;;;;;4.18;1.45;;;;;;;27.86;37.31;101048.69;5147961;27;20034;-81
2022/06/29 10:05:20;;;;;;;2.58;1.38;;;;;;;29.18;35.02;101037.28;5129132;27;20547;-82
2022/06/29 10:07:54;;;;;;;3.83;1.23;;;;;;;30.09;33.72;101041.72;5128739;27;20050;-79
2022/06/29 10:10:22;;;;;;;2.63;1.23;;;;;;;30.88;32.59;101050.44;5147600;27;20023;-81
2022/06/29 10:15:40;;;;;;;4.45;1.95;;;;;;;31.98;30.72;101049.13;5147651;27;20038;-82
2022/06/29 10:18:27;;;;;;;4.65;1.40;;;;;;;32.22;30.44;101055.94;5147757;27;20030;-82
2022/06/29 10:20:53;;;;;;;2.78;1.40;;;;;;;32.52;29.94;101051.44;5146563;27;20026;-82
2022/06/29 10:23:43;;;;;;;3.47;1.67;;;;;;;32.75;29.29;101059.22;5146911;27;20074;-81
2022/06/29 10:28:56;;;;;;;4.35;1.40;;;;;;;33.78;28.18;101048.69;5147122;27;20042;-82
2022/06/29 10:31:50;;;;;;;5.70;1.48;;;;;;;34.10;27.78;101048.19;5128560;27;20022;-81
2022/06/29 10:34:31;;;;;;;6.63;1.30;;;;;;;33.23;27.32;101043.13;5147170;27;20015;-81
2022/06/29 10:37:02;;;;;;;3.13;1.58;;;;;;;32.25;28.96;101052.97;5146787;27;20030;-81
2022/06/29 10:39:54;;;;;;;4.15;1.38;;;;;;;31.65;29.60;101043.91;5146918;27;20022;-80
2022/06/29 10:45:18;;;;;;;2.90;1.73;;;;;;;30.12;31.95;101054.00;5146890;27;20057;-79
2022/06/29 10:47:48;;;;;;;3.78;1.60;;;;;;;30.42;31.91;101049.78;5146863;27;20031;-79
2022/06/29 10:50:17;;;;;;;4.15;1.55;;;;;;;30.44;31.79;101053.19;5146694;27;20041;-81
2022/06/29 10:52:45;;;;;;;3.25;1.50;;;;;;;30.07;32.23;101043.66;5145356;27;20035;-82
2022/06/29 10:55:12;;;;;;;2.92;1.40;;;;;;;29.29;32.92;101047.97;5128135;27;20024;-81
2022/06/29 10:57:40;;;;;;;3.80;1.40;;;;;;;28.62;33.90;101038.81;5146745;27;20135;-81
2022/06/29 11:00:10;;;;;;;5.45;1.40;;;;;;;28.51;33.65;101053.84;5127962;27;20213;-79
2022/06/29 11:02:37;;;;;;;4.35;1.42;;;;;;;28.63;33.39;101041.38;5146669;27;20019;-80
2022/06/29 11:05:03;;;;;;;4.72;1.42;;;;;;;28.22;33.57;101046.13;5145153;27;20046;-80
2022/06/29 11:12:58;;;;;;;4.55;1.38;;;;;;;26.66;36.51;101046.22;5146434;27;20042;-79
2022/06/29 11:15:39;;;;;;;3.10;1.10;;;;;;;26.39;37.03;101047.09;5144958;27;20061;-79
2022/06/29 11:18:15;;;;;;;5.70;1.60;;;;;;;26.23;37.48;101038.25;5146446;27;20079;-79
2022/06/29 11:20:42;;;;;;;3.65;1.40;;;;;;;26.21;37.54;101037.53;5146973;27;20098;-79
2022/06/29 11:23:17;;;;;;;5.60;1.40;;;;;;;25.98;38.00;101033.66;5146049;27;20058;-76
2022/06/29 11:25:47;;;;;;;2.75;1.42;;;;;;;25.94;38.68;101037.50;5146212;27;20023;-76
2022/06/29 11:28:13;;;;;;;3.30;1.38;;;;;;;25.81;38.76;101042.72;5145996;27;20026;-76
2022/06/29 11:30:39;;;;;;;4.00;1.55;;;;;;;25.62;39.19;101038.56;5145892;27;20091;-76
2022/06/29 11:33:12;;;;;;;4.38;1.80;;;;;;;25.40;39.67;101034.53;5146032;27;20030;-76
2022/06/29 11:35:39;;;;;;;9.48;1.67;;;;;;;25.02;40.91;101022.66;5145927;27;20481;-76
2022/06/29 11:38:07;;;;;;;4.90;1.50;;;;;;;24.98;40.82;101024.66;5145555;27;20034;-77
2022/06/29 11:40:41;;;;;;;3.38;2.03;;;;;;;24.88;41.02;100997.75;5145657;27;20030;-76